KPUB/PUB METAR and TAF weather

Enter ICAO airport designator
Station Type Date Time Source
KPUB METAR 2022/06/28 15:53 UTC NOAA

KPUB 281553Z VRB03KT 10SM CLR 24/10 A3030 RMK AO2 SLP203 T02390100


Station Type Date Time Source
KPUB Decoded METAR 2022/06/28 15:53 UTC NOAA

PUEBLO MEMORIAL AIRPORT, CO, United States (KPUB) 38-17N 104-30W 1420M
Jun 28, 2022 - 11:53 AM EDT / 2022.06.28 1553 UTC
Wind: Variable at 3 MPH (3 KT):0
Visibility: 10 mile(s):0
Sky conditions: clear
Temperature: 75.0 F (23.9 C)
Dew Point: 50.0 F (10.0 C)
Relative Humidity: 41%
Pressure (altimeter): 30.3 in. Hg (1026 hPa)
ob: KPUB 281553Z VRB03KT 10SM CLR 24/10 A3030 RMK AO2 SLP203 T02390100
cycle: 16

Station Type Date Time Source
KPUB TAF 2022/06/28 12:42 UTC NOAA

TAF KPUB 281139Z 2812/2912 VRB06KT P6SM SKC
FM281600 16008KT P6SM SKC
FM282000 13012KT P6SM FEW100 SCT200
FM290200 10008KT P6SM SCT200
FM290600 VRB06KT P6SM FEW200

Example: see airport list